sensor_id;sensor_type;location;lat;lon;timestamp;pressure;altitude;pressure_sealevel;temperature;humidity
60852;BME280;48553;50.766;2.900;2023-02-19T00:00:31;101426.41;;;9.66;98.10
60852;BME280;48553;50.766;2.900;2023-02-19T00:03:32;101428.34;;;9.65;97.93
60852;BME280;48553;50.766;2.900;2023-02-19T00:06:33;101425.63;;;9.65;97.78
60852;BME280;48553;50.766;2.900;2023-02-19T00:09:34;101425.94;;;9.64;97.91
60852;BME280;48553;50.766;2.900;2023-02-19T00:12:34;101427.38;;;9.61;97.93
60852;BME280;48553;50.766;2.900;2023-02-19T00:15:35;101429.59;;;9.59;97.82
60852;BME280;48553;50.766;2.900;2023-02-19T00:18:35;101438.31;;;9.61;97.71
60852;BME280;48553;50.766;2.900;2023-02-19T00:21:35;101447.63;;;9.60;97.63
60852;BME280;48553;50.766;2.900;2023-02-19T00:24:36;101450.69;;;9.58;97.44
60852;BME280;48553;50.766;2.900;2023-02-19T00:27:36;101453.72;;;9.57;97.57
60852;BME280;48553;50.766;2.900;2023-02-19T00:30:37;101458.41;;;9.56;97.39
60852;BME280;48553;50.766;2.900;2023-02-19T00:33:37;101452.44;;;9.54;97.21
60852;BME280;48553;50.766;2.900;2023-02-19T00:36:39;101447.25;;;9.53;97.24
60852;BME280;48553;50.766;2.900;2023-02-19T00:39:40;101455.47;;;9.53;97.32
60852;BME280;48553;50.766;2.900;2023-02-19T00:42:40;101463.69;;;9.53;97.08
60852;BME280;48553;50.766;2.900;2023-02-19T00:45:40;101461.25;;;9.51;96.86
60852;BME280;48553;50.766;2.900;2023-02-19T00:48:41;101465.09;;;9.50;97.16
60852;BME280;48553;50.766;2.900;2023-02-19T00:51:41;101456.59;;;9.52;97.02
60852;BME280;48553;50.766;2.900;2023-02-19T00:54:42;101465.91;;;9.51;97.00
60852;BME280;48553;50.766;2.900;2023-02-19T00:57:42;101466.72;;;9.51;97.10
60852;BME280;48553;50.766;2.900;2023-02-19T01:00:42;101465.91;;;9.51;96.89
60852;BME280;48553;50.766;2.900;2023-02-19T01:03:43;101476.06;;;9.50;96.81
60852;BME280;48553;50.766;2.900;2023-02-19T01:06:43;101472.81;;;9.48;97.13
60852;BME280;48553;50.766;2.900;2023-02-19T01:09:44;101469.78;;;9.50;97.02
60852;BME280;48553;50.766;2.900;2023-02-19T01:12:44;101468.97;;;9.49;96.87
60852;BME280;48553;50.766;2.900;2023-02-19T01:15:45;101473.44;;;9.45;97.02
60852;BME280;48553;50.766;2.900;2023-02-19T01:18:46;101478.28;;;9.48;96.88
60852;BME280;48553;50.766;2.900;2023-02-19T01:21:47;101487.31;;;9.49;96.98
60852;BME280;48553;50.766;2.900;2023-02-19T01:24:47;101483.88;;;9.43;96.87
60852;BME280;48553;50.766;2.900;2023-02-19T01:27:47;101484.38;;;9.45;97.01
60852;BME280;48553;50.766;2.900;2023-02-19T01:30:48;101494.84;;;9.43;96.79
60852;BME280;48553;50.766;2.900;2023-02-19T01:33:56;101490.16;;;9.44;96.95
60852;BME280;48553;50.766;2.900;2023-02-19T01:36:57;101479.22;;;9.44;96.76
60852;BME280;48553;50.766;2.900;2023-02-19T01:39:58;101490.16;;;9.44;96.69
60852;BME280;48553;50.766;2.900;2023-02-19T01:42:58;101486.00;;;9.46;96.54
60852;BME280;48553;50.766;2.900;2023-02-19T01:45:59;101488.06;;;9.40;96.86
60852;BME280;48553;50.766;2.900;2023-02-19T01:49:25;101495.13;;;9.41;96.87
60852;BME280;48553;50.766;2.900;2023-02-19T01:52:31;101493.19;;;9.42;96.78
60852;BME280;48553;50.766;2.900;2023-02-19T01:55:33;101499.50;;;9.43;96.70
60852;BME280;48553;50.766;2.900;2023-02-19T01:58:36;101498.66;;;9.42;96.74
60852;BME280;48553;50.766;2.900;2023-02-19T02:01:38;101502.53;;;9.41;96.74
60852;BME280;48553;50.766;2.900;2023-02-19T02:04:39;101497.69;;;9.38;96.68
60852;BME280;48553;50.766;2.900;2023-02-19T02:07:39;101504.47;;;9.40;96.56
60852;BME280;48553;50.766;2.900;2023-02-19T02:10:58;101508.00;;;9.41;96.61
60852;BME280;48553;50.766;2.900;2023-02-19T02:13:59;101498.16;;;9.40;96.62
60852;BME280;48553;50.766;2.900;2023-02-19T02:33:36;101507.31;;;9.35;96.85
60852;BME280;48553;50.766;2.900;2023-02-19T02:36:46;101515.50;;;9.35;96.61
60852;BME280;48553;50.766;2.900;2023-02-19T02:39:49;101506.81;;;9.33;96.67
60852;BME280;48553;50.766;2.900;2023-02-19T02:42:50;101514.72;;;9.35;96.61
60852;BME280;48553;50.766;2.900;2023-02-19T02:45:51;101511.97;;;9.35;96.52
60852;BME280;48553;50.766;2.900;2023-02-19T02:49:03;101511.16;;;9.34;96.52
60852;BME280;48553;50.766;2.900;2023-02-19T02:52:04;101508.22;;;9.31;96.54
60852;BME280;48553;50.766;2.900;2023-02-19T02:55:29;101513.69;;;9.31;96.62
60852;BME280;48553;50.766;2.900;2023-02-19T02:58:31;101513.41;;;9.32;96.65
60852;BME280;48553;50.766;2.900;2023-02-19T03:05:19;101521.91;;;9.31;96.58
60852;BME280;48553;50.766;2.900;2023-02-19T03:12:04;101530.75;;;9.28;96.45
60852;BME280;48553;50.766;2.900;2023-02-19T03:15:28;101530.13;;;9.31;96.22
60852;BME280;48553;50.766;2.900;2023-02-19T03:18:53;101541.06;;;9.31;96.23
60852;BME280;48553;50.766;2.900;2023-02-19T03:22:28;101544.41;;;9.28;96.43
60852;BME280;48553;50.766;2.900;2023-02-19T03:25:31;101548.47;;;9.30;96.19
60852;BME280;48553;50.766;2.900;2023-02-19T03:28:52;101542.47;;;9.28;96.35
60852;BME280;48553;50.766;2.900;2023-02-19T03:32:17;101558.91;;;9.28;96.29
60852;BME280;48553;50.766;2.900;2023-02-19T03:35:33;101554.56;;;9.27;96.19
60852;BME280;48553;50.766;2.900;2023-02-19T03:38:39;101556.97;;;9.29;96.18
60852;BME280;48553;50.766;2.900;2023-02-19T03:42:45;101566.28;;;9.28;96.17
60852;BME280;48553;50.766;2.900;2023-02-19T03:45:26;101573.69;;;9.27;96.23
60852;BME280;48553;50.766;2.900;2023-02-19T03:48:35;101564.69;;;9.27;96.07
60852;BME280;48553;50.766;2.900;2023-02-19T03:58:23;101575.41;;;9.23;96.12
60852;BME280;48553;50.766;2.900;2023-02-19T04:04:48;101577.88;;;9.25;95.91
60852;BME280;48553;50.766;2.900;2023-02-19T04:07:53;101581.19;;;9.22;95.72
60852;BME280;48553;50.766;2.900;2023-02-19T04:10:57;101587.78;;;9.20;95.74
60852;BME280;48553;50.766;2.900;2023-02-19T04:14:08;101582.31;;;9.20;95.54
60852;BME280;48553;50.766;2.900;2023-02-19T04:17:24;101586.16;;;9.19;95.58
60852;BME280;48553;50.766;2.900;2023-02-19T04:20:29;101572.47;;;9.19;95.60
60852;BME280;48553;50.766;2.900;2023-02-19T04:23:35;101583.91;;;9.22;95.25
60852;BME280;48553;50.766;2.900;2023-02-19T04:26:37;101590.81;;;9.19;95.29
60852;BME280;48553;50.766;2.900;2023-02-19T04:29:38;101593.88;;;9.17;95.09
60852;BME280;48553;50.766;2.900;2023-02-19T04:32:39;101592.25;;;9.16;94.96
60852;BME280;48553;50.766;2.900;2023-02-19T04:35:39;101597.72;;;9.16;95.20
60852;BME280;48553;50.766;2.900;2023-02-19T04:38:40;101603.19;;;9.16;94.73
60852;BME280;48553;50.766;2.900;2023-02-19T04:41:40;101607.03;;;9.15;94.73
60852;BME280;48553;50.766;2.900;2023-02-19T04:44:41;101613.63;;;9.14;94.65
60852;BME280;48553;50.766;2.900;2023-02-19T04:47:41;101614.94;;;9.17;94.60
60852;BME280;48553;50.766;2.900;2023-02-19T04:50:42;101610.06;;;9.14;94.65
60852;BME280;48553;50.766;2.900;2023-02-19T04:53:42;101611.16;;;9.13;94.43
60852;BME280;48553;50.766;2.900;2023-02-19T04:56:43;101606.31;;;9.10;94.69
60852;BME280;48553;50.766;2.900;2023-02-19T04:59:45;101626.78;;;9.12;94.20
60852;BME280;48553;50.766;2.900;2023-02-19T05:02:45;101623.53;;;9.10;93.99
60852;BME280;48553;50.766;2.900;2023-02-19T05:05:46;101626.28;;;9.10;93.96
60852;BME280;48553;50.766;2.900;2023-02-19T05:08:46;101631.75;;;9.10;94.11
60852;BME280;48553;50.766;2.900;2023-02-19T05:11:46;101627.09;;;9.11;94.10
60852;BME280;48553;50.766;2.900;2023-02-19T05:14:47;101633.47;;;9.06;93.92
60852;BME280;48553;50.766;2.900;2023-02-19T05:17:48;101639.25;;;9.05;94.00
60852;BME280;48553;50.766;2.900;2023-02-19T05:20:49;101637.59;;;9.04;93.75
60852;BME280;48553;50.766;2.900;2023-02-19T05:23:50;101637.59;;;9.04;93.92
60852;BME280;48553;50.766;2.900;2023-02-19T05:26:50;101640.06;;;9.05;93.64
60852;BME280;48553;50.766;2.900;2023-02-19T05:29:51;101642.78;;;9.05;93.79
60852;BME280;48553;50.766;2.900;2023-02-19T05:32:51;101648.25;;;9.05;93.58
60852;BME280;48553;50.766;2.900;2023-02-19T05:35:54;101660.31;;;9.04;93.35
60852;BME280;48553;50.766;2.900;2023-02-19T05:38:55;101662.53;;;9.02;93.08
60852;BME280;48553;50.766;2.900;2023-02-19T05:41:56;101674.56;;;9.01;93.30
60852;BME280;48553;50.766;2.900;2023-02-19T05:44:56;101663.97;;;8.99;93.28
60852;BME280;48553;50.766;2.900;2023-02-19T05:47:57;101662.84;;;9.01;93.19
60852;BME280;48553;50.766;2.900;2023-02-19T05:51:17;101668.59;;;8.99;92.94
60852;BME280;48553;50.766;2.900;2023-02-19T05:54:18;101656.25;;;9.02;93.11
60852;BME280;48553;50.766;2.900;2023-02-19T05:57:19;101667.00;;;8.98;92.65
60852;BME280;48553;50.766;2.900;2023-02-19T06:00:21;101674.91;;;8.99;92.60
60852;BME280;48553;50.766;2.900;2023-02-19T06:03:22;101682.78;;;9.01;92.46
60852;BME280;48553;50.766;2.900;2023-02-19T06:06:23;101687.72;;;8.99;92.48
60852;BME280;48553;50.766;2.900;2023-02-19T06:09:24;101685.00;;;8.99;92.93
60852;BME280;48553;50.766;2.900;2023-02-19T06:12:24;101695.13;;;8.98;92.63
60852;BME280;48553;50.766;2.900;2023-02-19T06:15:25;101699.00;;;8.97;92.78
60852;BME280;48553;50.766;2.900;2023-02-19T06:18:25;101700.59;;;8.98;92.82
60852;BME280;48553;50.766;2.900;2023-02-19T06:21:25;101701.41;;;8.99;92.98
60852;BME280;48553;50.766;2.900;2023-02-19T06:24:26;101702.53;;;8.98;92.91
60852;BME280;48553;50.766;2.900;2023-02-19T06:27:26;101702.00;;;8.96;92.90
60852;BME280;48553;50.766;2.900;2023-02-19T06:30:27;101702.00;;;8.96;92.99
60852;BME280;48553;50.766;2.900;2023-02-19T06:33:27;101712.66;;;8.97;93.09
60852;BME280;48553;50.766;2.900;2023-02-19T06:36:28;101714.88;;;8.95;92.95
60852;BME280;48553;50.766;2.900;2023-02-19T06:39:28;101714.88;;;8.95;93.14
60852;BME280;48553;50.766;2.900;2023-02-19T06:42:32;101732.91;;;8.96;93.16
60852;BME280;48553;50.766;2.900;2023-02-19T06:45:32;101729.34;;;8.96;92.98
60852;BME280;48553;50.766;2.900;2023-02-19T06:48:33;101732.38;;;8.94;93.07
60852;BME280;48553;50.766;2.900;2023-02-19T06:51:34;101729.97;;;8.93;93.27
60852;BME280;48553;50.766;2.900;2023-02-19T06:54:34;101728.84;;;8.94;93.27
60852;BME280;48553;50.766;2.900;2023-02-19T06:57:35;101735.94;;;8.95;93.31
60852;BME280;48553;50.766;2.900;2023-02-19T07:00:35;101734.31;;;8.94;93.10
60852;BME280;48553;50.766;2.900;2023-02-19T07:03:36;101729.97;;;8.93;93.15
60852;BME280;48553;50.766;2.900;2023-02-19T07:06:36;101728.84;;;8.94;92.96
60852;BME280;48553;50.766;2.900;2023-02-19T07:09:37;101732.19;;;8.91;93.01
60852;BME280;48553;50.766;2.900;2023-02-19T07:12:37;101737.34;;;8.92;92.97
60852;BME280;48553;50.766;2.900;2023-02-19T07:15:38;101731.06;;;8.92;92.99
60852;BME280;48553;50.766;2.900;2023-02-19T07:18:39;101746.38;;;8.93;92.73
60852;BME280;48553;50.766;2.900;2023-02-19T07:21:40;101735.72;;;8.91;92.59
60852;BME280;48553;50.766;2.900;2023-02-19T07:24:41;101746.66;;;8.91;92.77
60852;BME280;48553;50.766;2.900;2023-02-19T07:27:41;101761.94;;;8.92;93.00
60852;BME280;48553;50.766;2.900;2023-02-19T07:30:42;101749.91;;;8.93;92.82
60852;BME280;48553;50.766;2.900;2023-02-19T07:33:43;101752.34;;;8.95;92.80
60852;BME280;48553;50.766;2.900;2023-02-19T07:36:43;101766.59;;;8.92;92.91
60852;BME280;48553;50.766;2.900;2023-02-19T07:39:44;101766.31;;;8.93;92.92
60852;BME280;48553;50.766;2.900;2023-02-19T07:42:44;101779.19;;;8.93;93.59
60852;BME280;48553;50.766;2.900;2023-02-19T07:45:45;101781.91;;;8.93;93.28
60852;BME280;48553;50.766;2.900;2023-02-19T07:48:45;101789.28;;;8.92;93.32
60852;BME280;48553;50.766;2.900;2023-02-19T07:51:45;101793.13;;;8.91;93.30
60852;BME280;48553;50.766;2.900;2023-02-19T07:54:46;101798.84;;;8.95;93.24
60852;BME280;48553;50.766;2.900;2023-02-19T07:57:46;101795.25;;;8.94;93.33
60852;BME280;48553;50.766;2.900;2023-02-19T08:00:47;101802.66;;;8.94;93.28
60852;BME280;48553;50.766;2.900;2023-02-19T08:03:47;101803.97;;;8.96;93.39
60852;BME280;48553;50.766;2.900;2023-02-19T08:06:48;101809.97;;;8.98;93.36
60852;BME280;48553;50.766;2.900;2023-02-19T08:09:48;101825.56;;;8.98;93.30
60852;BME280;48553;50.766;2.900;2023-02-19T08:13:13;101828.53;;;9.02;93.50
60852;BME280;48553;50.766;2.900;2023-02-19T08:16:24;101828.22;;;9.03;93.31
60852;BME280;48553;50.766;2.900;2023-02-19T08:19:24;101832.59;;;9.04;93.12
60852;BME280;48553;50.766;2.900;2023-02-19T08:22:25;101831.47;;;9.05;93.17
60852;BME280;48553;50.766;2.900;2023-02-19T08:25:25;101843.19;;;9.06;93.19
60852;BME280;48553;50.766;2.900;2023-02-19T08:28:26;101852.25;;;9.06;93.36
60852;BME280;48553;50.766;2.900;2023-02-19T08:31:27;101841.50;;;9.10;93.30
60852;BME280;48553;50.766;2.900;2023-02-19T08:34:27;101859.75;;;9.14;93.15
60852;BME280;48553;50.766;2.900;2023-02-19T08:37:27;101866.84;;;9.15;93.04
60852;BME280;48553;50.766;2.900;2023-02-19T08:40:28;101873.94;;;9.16;93.16
60852;BME280;48553;50.766;2.900;2023-02-19T08:43:28;101874.47;;;9.18;93.10
60852;BME280;48553;50.766;2.900;2023-02-19T08:46:29;101882.38;;;9.20;93.11
60852;BME280;48553;50.766;2.900;2023-02-19T08:49:29;101879.63;;;9.20;93.17
60852;BME280;48553;50.766;2.900;2023-02-19T08:52:30;101878.50;;;9.21;92.97
60852;BME280;48553;50.766;2.900;2023-02-19T08:55:31;101873.84;;;9.22;93.25
60852;BME280;48553;50.766;2.900;2023-02-19T08:58:32;101871.94;;;9.22;93.19
60852;BME280;48553;50.766;2.900;2023-02-19T09:01:32;101867.81;;;9.25;93.00
60852;BME280;48553;50.766;2.900;2023-02-19T09:04:33;101877.91;;;9.24;93.01
60852;BME280;48553;50.766;2.900;2023-02-19T09:07:35;101900.03;;;9.28;93.13
60852;BME280;48553;50.766;2.900;2023-02-19T09:10:35;101901.34;;;9.30;93.00
60852;BME280;48553;50.766;2.900;2023-02-19T09:13:36;101907.63;;;9.31;92.96
60852;BME280;48553;50.766;2.900;2023-02-19T09:16:36;101896.69;;;9.31;92.73
60852;BME280;48553;50.766;2.900;2023-02-19T09:19:37;101888.19;;;9.32;92.79
60852;BME280;48553;50.766;2.900;2023-02-19T09:22:37;101897.19;;;9.33;92.72
60852;BME280;48553;50.766;2.900;2023-02-19T09:25:38;101899.63;;;9.34;92.88
60852;BME280;48553;50.766;2.900;2023-02-19T09:28:38;101909.78;;;9.34;92.97
60852;BME280;48553;50.766;2.900;2023-02-19T09:31:40;101908.66;;;9.35;92.92
60852;BME280;48553;50.766;2.900;2023-02-19T09:34:41;101893.03;;;9.35;92.93
60852;BME280;48553;50.766;2.900;2023-02-19T09:37:41;101890.81;;;9.37;92.80
60852;BME280;48553;50.766;2.900;2023-02-19T09:40:42;101899.25;;;9.41;92.64
60852;BME280;48553;50.766;2.900;2023-02-19T09:43:42;101913.47;;;9.43;92.55
60852;BME280;48553;50.766;2.900;2023-02-19T09:46:46;101923.00;;;9.46;92.61
60852;BME280;48553;50.766;2.900;2023-02-19T09:49:48;101905.66;;;9.50;92.51
60852;BME280;48553;50.766;2.900;2023-02-19T09:52:57;101917.03;;;9.57;92.43
60852;BME280;48553;50.766;2.900;2023-02-19T09:55:58;101917.44;;;9.65;92.01
60852;BME280;48553;50.766;2.900;2023-02-19T09:59:00;101922.88;;;9.70;91.89
60852;BME280;48553;50.766;2.900;2023-02-19T10:02:12;101930.75;;;9.71;91.92
60852;BME280;48553;50.766;2.900;2023-02-19T10:05:15;101936.44;;;9.75;91.85
60852;BME280;48553;50.766;2.900;2023-02-19T10:08:18;101941.84;;;9.80;91.76
60852;BME280;48553;50.766;2.900;2023-02-19T10:11:19;101926.31;;;9.89;91.82
60852;BME280;48553;50.766;2.900;2023-02-19T10:14:36;101931.13;;;9.97;91.40
60852;BME280;48553;50.766;2.900;2023-02-19T10:17:39;101937.00;;;10.04;90.93
60852;BME280;48553;50.766;2.900;2023-02-19T10:20:39;101954.06;;;10.15;90.95
60852;BME280;48553;50.766;2.900;2023-02-19T10:23:40;101955.56;;;10.21;90.70
60852;BME280;48553;50.766;2.900;2023-02-19T10:26:42;101959.63;;;10.24;90.59
60852;BME280;48553;50.766;2.900;2023-02-19T10:29:44;101966.97;;;10.29;90.51
60852;BME280;48553;50.766;2.900;2023-02-19T10:33:12;101978.38;;;10.36;90.29
60852;BME280;48553;50.766;2.900;2023-02-19T10:36:29;101961.81;;;10.41;90.30
60852;BME280;48553;50.766;2.900;2023-02-19T10:42:44;101977.72;;;10.66;89.64
60852;BME280;48553;50.766;2.900;2023-02-19T10:45:47;101975.47;;;10.82;89.24
60852;BME280;48553;50.766;2.900;2023-02-19T10:48:59;101976.78;;;10.85;89.08
60852;BME280;48553;50.766;2.900;2023-02-19T10:52:13;101977.69;;;10.94;88.66
60852;BME280;48553;50.766;2.900;2023-02-19T10:55:25;101984.56;;;11.05;88.31
60852;BME280;48553;50.766;2.900;2023-02-19T10:58:27;101994.75;;;11.05;88.08
60852;BME280;48553;50.766;2.900;2023-02-19T11:01:28;102009.28;;;11.05;88.19
60852;BME280;48553;50.766;2.900;2023-02-19T11:04:30;102012.34;;;11.04;88.34
60852;BME280;48553;50.766;2.900;2023-02-19T11:07:42;102010.31;;;10.96;88.31
60852;BME280;48553;50.766;2.900;2023-02-19T11:10:46;102022.50;;;10.90;88.46
60852;BME280;48553;50.766;2.900;2023-02-19T11:13:47;102043.13;;;10.87;88.45
60852;BME280;48553;50.766;2.900;2023-02-19T11:16:50;102027.81;;;10.86;87.72
60852;BME280;48553;50.766;2.900;2023-02-19T11:19:56;102033.19;;;10.91;88.10
60852;BME280;48553;50.766;2.900;2023-02-19T11:23:02;102033.38;;;11.08;86.64
60852;BME280;48553;50.766;2.900;2023-02-19T11:26:12;102020.63;;;11.26;87.15
60852;BME280;48553;50.766;2.900;2023-02-19T11:29:20;102014.13;;;11.22;87.23
60852;BME280;48553;50.766;2.900;2023-02-19T11:32:28;102008.63;;;11.22;87.40
60852;BME280;48553;50.766;2.900;2023-02-19T11:35:30;102006.19;;;11.21;87.11
60852;BME280;48553;50.766;2.900;2023-02-19T11:38:30;102010.56;;;11.22;86.87
60852;BME280;48553;50.766;2.900;2023-02-19T11:52:11;101994.31;;;11.48;86.43
60852;BME280;48553;50.766;2.900;2023-02-19T11:58:59;101996.97;;;11.39;86.91
60852;BME280;48553;50.766;2.900;2023-02-19T12:02:30;101994.88;;;11.36;86.85
60852;BME280;48553;50.766;2.900;2023-02-19T12:09:06;101991.25;;;11.27;87.04
60852;BME280;48553;50.766;2.900;2023-02-19T12:38:43;102029.09;;;11.02;86.60
60852;BME280;48553;50.766;2.900;2023-02-19T12:44:59;102047.78;;;11.00;85.91
60852;BME280;48553;50.766;2.900;2023-02-19T12:51:17;102045.84;;;11.01;84.98
60852;BME280;48553;50.766;2.900;2023-02-19T12:54:27;102043.03;;;11.06;85.44
60852;BME280;48553;50.766;2.900;2023-02-19T12:57:33;102054.00;;;11.06;86.52
60852;BME280;48553;50.766;2.900;2023-02-19T13:00:48;102058.34;;;11.07;85.77
60852;BME280;48553;50.766;2.900;2023-02-19T13:07:39;102015.06;;;11.18;85.52
60852;BME280;48553;50.766;2.900;2023-02-19T13:10:56;102031.59;;;11.26;84.34
60852;BME280;48553;50.766;2.900;2023-02-19T13:14:19;102034.81;;;11.28;84.86
60852;BME280;48553;50.766;2.900;2023-02-19T13:17:31;102041.88;;;11.21;84.64
60852;BME280;48553;50.766;2.900;2023-02-19T13:20:37;102052.66;;;11.17;84.74
60852;BME280;48553;50.766;2.900;2023-02-19T13:23:40;102046.97;;;11.14;84.71
60852;BME280;48553;50.766;2.900;2023-02-19T13:27:53;102038.72;;;11.14;85.65
60852;BME280;48553;50.766;2.900;2023-02-19T13:37:43;102056.75;;;11.06;85.49
60852;BME280;48553;50.766;2.900;2023-02-19T13:41:26;102065.56;;;11.03;84.41
60852;BME280;48553;50.766;2.900;2023-02-19T13:44:29;102056.22;;;11.04;85.25
60852;BME280;48553;50.766;2.900;2023-02-19T13:48:13;102058.97;;;11.04;85.93
60852;BME280;48553;50.766;2.900;2023-02-19T13:54:33;102066.69;;;11.02;85.03
60852;BME280;48553;50.766;2.900;2023-02-19T13:57:39;102063.97;;;11.02;85.43
60852;BME280;48553;50.766;2.900;2023-02-19T14:00:47;102058.97;;;11.04;85.54
60852;BME280;48553;50.766;2.900;2023-02-19T14:03:53;102055.09;;;11.05;84.25
60852;BME280;48553;50.766;2.900;2023-02-19T14:10:08;102045.66;;;11.11;84.97
60852;BME280;48553;50.766;2.900;2023-02-19T14:13:10;102034.94;;;11.23;81.60
60852;BME280;48553;50.766;2.900;2023-02-19T14:16:30;102044.97;;;11.42;82.96
60852;BME280;48553;50.766;2.900;2023-02-19T14:25:53;102054.16;;;11.60;84.01
60852;BME280;48553;50.766;2.900;2023-02-19T14:28:56;102055.97;;;11.64;83.43
60852;BME280;48553;50.766;2.900;2023-02-19T14:31:57;102061.53;;;11.73;81.19
60852;BME280;48553;50.766;2.900;2023-02-19T14:35:00;102071.41;;;11.74;82.05
60852;BME280;48553;50.766;2.900;2023-02-19T14:38:01;102077.72;;;11.75;83.44
60852;BME280;48553;50.766;2.900;2023-02-19T14:41:03;102080.25;;;11.71;82.82
60852;BME280;48553;50.766;2.900;2023-02-19T14:44:12;102082.00;;;11.67;81.63
60852;BME280;48553;50.766;2.900;2023-02-19T14:47:17;102071.66;;;11.64;81.00
60852;BME280;48553;50.766;2.900;2023-02-19T14:50:26;102087.09;;;11.60;84.28
60852;BME280;48553;50.766;2.900;2023-02-19T14:53:28;102080.81;;;11.59;83.36
60852;BME280;48553;50.766;2.900;2023-02-19T14:56:32;102074.81;;;11.57;84.88
60852;BME280;48553;50.766;2.900;2023-02-19T14:59:33;102068.09;;;11.63;84.47
60852;BME280;48553;50.766;2.900;2023-02-19T15:02:41;102059.47;;;11.56;84.10
60852;BME280;48553;50.766;2.900;2023-02-19T15:05:42;102057.72;;;11.60;83.61
60852;BME280;48553;50.766;2.900;2023-02-19T15:08:47;102067.16;;;11.68;83.87
60852;BME280;48553;50.766;2.900;2023-02-19T15:11:47;102064.59;;;11.71;83.45
60852;BME280;48553;50.766;2.900;2023-02-19T15:14:49;102062.84;;;11.76;83.24
60852;BME280;48553;50.766;2.900;2023-02-19T15:17:52;102063.47;;;11.73;81.47
60852;BME280;48553;50.766;2.900;2023-02-19T15:21:03;102061.03;;;11.71;82.89
60852;BME280;48553;50.766;2.900;2023-02-19T15:24:05;102069.91;;;11.68;82.47
60852;BME280;48553;50.766;2.900;2023-02-19T15:27:15;102057.09;;;11.63;83.10
60852;BME280;48553;50.766;2.900;2023-02-19T15:30:27;102055.59;;;11.57;84.46
60852;BME280;48553;50.766;2.900;2023-02-19T15:33:28;102051.34;;;11.51;83.59
60852;BME280;48553;50.766;2.900;2023-02-19T15:36:30;102056.66;;;11.47;84.67
60852;BME280;48553;50.766;2.900;2023-02-19T15:39:39;102065.81;;;11.43;84.59
60852;BME280;48553;50.766;2.900;2023-02-19T15:42:43;102061.56;;;11.37;84.91
60852;BME280;48553;50.766;2.900;2023-02-19T15:45:45;102061.03;;;11.35;83.10
60852;BME280;48553;50.766;2.900;2023-02-19T15:49:06;102067.28;;;11.26;82.42
60852;BME280;48553;50.766;2.900;2023-02-19T15:52:15;102066.16;;;11.27;83.63
60852;BME280;48553;50.766;2.900;2023-02-19T15:58:57;102068.78;;;11.19;82.74
60852;BME280;48553;50.766;2.900;2023-02-19T16:01:59;102066.16;;;11.14;82.32
60852;BME280;48553;50.766;2.900;2023-02-19T16:05:10;102062.72;;;11.08;81.79
60852;BME280;48553;50.766;2.900;2023-02-19T16:17:29;102046.38;;;10.89;82.22
60852;BME280;48553;50.766;2.900;2023-02-19T16:20:32;102066.50;;;10.84;81.78
60852;BME280;48553;50.766;2.900;2023-02-19T16:23:33;102058.56;;;10.83;82.24
60852;BME280;48553;50.766;2.900;2023-02-19T16:26:41;102056.72;;;10.78;81.93
60852;BME280;48553;50.766;2.900;2023-02-19T16:29:49;102058.16;;;10.76;82.16
60852;BME280;48553;50.766;2.900;2023-02-19T16:36:35;102058.88;;;10.68;82.19
60852;BME280;48553;50.766;2.900;2023-02-19T16:39:36;102058.97;;;10.62;82.26
60852;BME280;48553;50.766;2.900;2023-02-19T16:46:12;102073.97;;;10.51;82.64
60852;BME280;48553;50.766;2.900;2023-02-19T16:49:12;102067.69;;;10.51;82.58
60852;BME280;48553;50.766;2.900;2023-02-19T16:52:14;102071.03;;;10.48;82.70
60852;BME280;48553;50.766;2.900;2023-02-19T16:55:15;102058.44;;;10.47;83.15
60852;BME280;48553;50.766;2.900;2023-02-19T16:58:16;102067.06;;;10.40;83.20
60852;BME280;48553;50.766;2.900;2023-02-19T17:01:17;102066.88;;;10.36;83.38
60852;BME280;48553;50.766;2.900;2023-02-19T17:04:17;102062.00;;;10.33;83.22
60852;BME280;48553;50.766;2.900;2023-02-19T17:07:18;102067.47;;;10.33;83.28
60852;BME280;48553;50.766;2.900;2023-02-19T17:10:24;102072.47;;;10.26;83.62
60852;BME280;48553;50.766;2.900;2023-02-19T17:13:25;102080.19;;;10.24;83.75
60852;BME280;48553;50.766;2.900;2023-02-19T17:16:28;102077.97;;;10.26;84.00
60852;BME280;48553;50.766;2.900;2023-02-19T17:19:28;102073.91;;;10.23;83.74
60852;BME280;48553;50.766;2.900;2023-02-19T17:22:29;102068.50;;;10.18;83.58
60852;BME280;48553;50.766;2.900;2023-02-19T17:25:29;102073.19;;;10.18;83.76
60852;BME280;48553;50.766;2.900;2023-02-19T17:28:30;102074.91;;;10.14;83.92
60852;BME280;48553;50.766;2.900;2023-02-19T17:31:30;102066.69;;;10.14;83.81
60852;BME280;48553;50.766;2.900;2023-02-19T17:34:30;102070.59;;;10.08;83.77
60852;BME280;48553;50.766;2.900;2023-02-19T17:37:31;102075.56;;;10.06;83.96
60852;BME280;48553;50.766;2.900;2023-02-19T17:40:31;102073.16;;;10.04;83.73
60852;BME280;48553;50.766;2.900;2023-02-19T17:43:32;102065.59;;;9.96;83.79
60852;BME280;48553;50.766;2.900;2023-02-19T17:46:32;102069.47;;;9.95;83.67
60852;BME280;48553;50.766;2.900;2023-02-19T17:49:33;102076.03;;;9.94;84.01
60852;BME280;48553;50.766;2.900;2023-02-19T17:52:35;102074.72;;;9.91;83.96
60852;BME280;48553;50.766;2.900;2023-02-19T17:55:35;102081.09;;;9.87;83.71
60852;BME280;48553;50.766;2.900;2023-02-19T17:58:36;102079.47;;;9.86;83.96
60852;BME280;48553;50.766;2.900;2023-02-19T18:01:37;102082.50;;;9.84;84.08
60852;BME280;48553;50.766;2.900;2023-02-19T18:04:37;102086.13;;;9.79;83.88
60852;BME280;48553;50.766;2.900;2023-02-19T18:07:38;102091.38;;;9.76;83.87
60852;BME280;48553;50.766;2.900;2023-02-19T18:10:39;102085.38;;;9.74;83.79
60852;BME280;48553;50.766;2.900;2023-02-19T18:13:39;102091.47;;;9.71;83.79
60852;BME280;48553;50.766;2.900;2023-02-19T18:16:49;102089.91;;;9.65;83.92
60852;BME280;48553;50.766;2.900;2023-02-19T18:19:49;102093.47;;;9.65;83.87
60852;BME280;48553;50.766;2.900;2023-02-19T18:22:51;102089.69;;;9.61;83.81